createdAt,value
2023-04-21T00:05:03.897Z,14.40
2023-04-21T00:10:11.871Z,14.20
2023-04-21T00:15:14.642Z,16.10
2023-04-21T00:20:17.550Z,14.00
2023-04-21T00:25:20.487Z,12.60
2023-04-21T00:30:23.360Z,14.20
2023-04-21T00:35:26.627Z,16.90
2023-04-21T00:40:29.505Z,11.30
2023-04-21T00:45:32.293Z,16.70
2023-04-21T00:50:35.671Z,15.80
2023-04-21T00:55:38.586Z,14.50
2023-04-21T01:00:43.123Z,15.80
2023-04-21T01:05:46.775Z,18.20
2023-04-21T01:10:49.977Z,16.10
2023-04-21T01:15:52.827Z,14.20
2023-04-21T01:20:55.670Z,17.70
2023-04-21T01:25:58.668Z,14.00
2023-04-21T01:31:01.478Z,20.40
2023-04-21T01:36:04.659Z,18.60
2023-04-21T01:41:08.300Z,19.20
2023-04-21T01:46:11.187Z,17.60
2023-04-21T01:51:16.230Z,19.60
2023-04-21T01:56:19.815Z,22.20
2023-04-21T02:01:22.705Z,21.80
2023-04-21T02:06:26.589Z,20.60
2023-04-21T02:11:29.563Z,18.90
2023-04-21T02:16:32.696Z,20.90
2023-04-21T02:21:36.134Z,22.20
2023-04-21T02:26:39.274Z,17.10
2023-04-21T02:31:56.648Z,17.20
2023-04-21T02:37:02.586Z,15.20
2023-04-21T02:42:05.432Z,24.50
2023-04-21T02:47:08.391Z,34.40
2023-04-21T02:52:11.240Z,34.80
2023-04-21T02:57:13.990Z,20.40
2023-04-21T03:02:16.820Z,16.00
2023-04-21T03:07:19.928Z,21.40
2023-04-21T03:12:22.695Z,16.90
2023-04-21T03:17:25.666Z,15.60
2023-04-21T03:22:28.493Z,15.40
2023-04-21T03:27:31.319Z,16.00
2023-04-21T03:32:34.111Z,14.00
2023-04-21T03:37:36.884Z,14.10
2023-04-21T03:42:39.699Z,13.90
2023-04-21T03:47:42.547Z,15.20
2023-04-21T03:52:45.476Z,12.40
2023-04-21T03:57:48.202Z,15.20
2023-04-21T04:02:51.557Z,12.20
2023-04-21T04:07:54.500Z,16.10
2023-04-21T04:12:57.291Z,13.20
2023-04-21T04:18:00.582Z,12.50
2023-04-21T04:23:03.392Z,16.40
2023-04-21T04:28:07.576Z,15.30
2023-04-21T04:33:10.397Z,17.20
2023-04-21T04:38:15.819Z,40.60
2023-04-21T04:43:21.656Z,39.50
2023-04-21T04:48:37.612Z,21.30
2023-04-21T04:53:40.972Z,18.60
2023-04-21T04:58:46.621Z,15.60
2023-04-21T05:03:50.018Z,11.30
2023-04-21T05:08:53.062Z,16.20
2023-04-21T05:13:56.900Z,13.20
2023-04-21T05:19:01.911Z,15.00
2023-04-21T05:24:06.800Z,11.80
2023-04-21T05:29:09.677Z,15.50
2023-04-21T05:34:12.499Z,19.00
2023-04-21T05:39:19.907Z,13.50
2023-04-21T05:44:22.803Z,15.80
2023-04-21T05:49:25.554Z,13.70
2023-04-21T05:54:28.332Z,14.10
2023-04-21T05:59:31.106Z,13.90
2023-04-21T06:04:34.020Z,16.10
2023-04-21T06:09:37.620Z,15.70
2023-04-21T06:14:40.950Z,15.00
2023-04-21T06:19:43.773Z,15.20
2023-04-21T06:24:46.797Z,14.20
2023-04-21T06:29:54.776Z,12.10
2023-04-21T06:34:57.537Z,13.60
2023-04-21T06:40:00.319Z,11.60
2023-04-21T06:45:03.839Z,12.70
2023-04-21T06:50:07.581Z,13.60
2023-04-21T07:00:14.166Z,9.40
2023-04-21T07:05:17.028Z,12.40
2023-04-21T07:10:20.958Z,11.10
2023-04-21T07:15:23.819Z,9.60
2023-04-21T07:20:27.007Z,9.10
2023-04-21T07:25:29.960Z,9.50
2023-04-21T07:30:33.647Z,7.80
2023-04-21T07:35:36.565Z,8.40
2023-04-21T07:40:42.977Z,7.60
2023-04-21T07:45:57.531Z,10.10
2023-04-21T07:51:30.363Z,8.10
2023-04-21T07:56:33.232Z,7.60
2023-04-21T08:01:36.242Z,8.00
2023-04-21T08:06:39.304Z,6.20
2023-04-21T08:11:42.834Z,8.30
2023-04-21T08:16:45.949Z,6.20
2023-04-21T08:21:55.534Z,7.00
2023-04-21T08:27:02.501Z,6.90
2023-04-21T08:32:06.427Z,5.70
2023-04-21T08:37:17.325Z,4.70
2023-04-21T08:42:21.301Z,5.10
2023-04-21T08:47:25.650Z,5.20
2023-04-21T08:52:28.395Z,4.70
2023-04-21T08:57:31.456Z,5.00
2023-04-21T09:02:59.981Z,5.80
2023-04-21T09:08:16.713Z,5.60
2023-04-21T09:18:24.942Z,7.00
2023-04-21T09:23:28.140Z,5.20
2023-04-21T09:28:32.607Z,5.10
2023-04-21T09:33:45.749Z,6.80
2023-04-21T09:39:17.413Z,6.50
2023-04-21T09:49:28.685Z,4.70
2023-04-21T09:54:34.863Z,6.00
2023-04-21T09:59:40.983Z,5.00
2023-04-21T10:09:55.863Z,5.70
2023-04-21T10:15:06.379Z,5.70
2023-04-21T10:20:09.894Z,4.90
2023-04-21T10:25:14.428Z,6.70
2023-04-21T10:30:24.241Z,6.60
2023-04-21T10:36:01.581Z,4.10
2023-04-21T10:41:27.421Z,4.00
2023-04-21T10:46:41.354Z,5.00
2023-04-21T10:52:07.289Z,6.90
2023-04-21T10:57:12.154Z,4.60
2023-04-21T11:02:17.681Z,6.10
2023-04-21T11:07:25.543Z,11.90
2023-04-21T11:12:48.563Z,7.00
2023-04-21T11:17:51.422Z,4.10
2023-04-21T11:22:56.520Z,5.50
2023-04-21T11:28:03.123Z,4.40
2023-04-21T11:33:10.865Z,6.50
2023-04-21T11:38:16.336Z,4.50
2023-04-21T11:43:21.454Z,6.10
2023-04-21T11:48:30.048Z,4.20
2023-04-21T11:53:32.954Z,4.80
2023-04-21T11:58:35.963Z,4.40
2023-04-21T12:03:40.221Z,4.50
2023-04-21T12:08:43.219Z,5.20
2023-04-21T12:13:46.403Z,5.60
2023-04-21T12:18:49.695Z,4.50
2023-04-21T12:23:52.505Z,3.90
2023-04-21T12:28:57.714Z,3.90
2023-04-21T12:34:00.636Z,4.20
2023-04-21T12:39:04.081Z,5.20
2023-04-21T12:44:06.934Z,4.50
2023-04-21T12:49:11.434Z,3.30
2023-04-21T12:54:15.133Z,6.30
2023-04-21T12:59:17.984Z,5.20
2023-04-21T13:04:22.307Z,4.60
2023-04-21T13:09:25.630Z,5.50
2023-04-21T13:14:28.420Z,5.40
2023-04-21T13:19:31.525Z,7.60
2023-04-21T13:24:38.042Z,6.10
2023-04-21T13:29:45.777Z,4.80
2023-04-21T13:34:51.035Z,7.80
2023-04-21T13:39:54.026Z,4.90
2023-04-21T13:44:57.776Z,5.20
2023-04-21T13:50:01.199Z,5.20
2023-04-21T13:55:05.363Z,3.60
2023-04-21T14:00:12.016Z,4.40
2023-04-21T14:05:14.975Z,4.80
2023-04-21T14:10:17.947Z,4.50
2023-04-21T14:15:20.805Z,5.30
2023-04-21T14:20:23.773Z,3.70
2023-04-21T14:25:26.638Z,4.30
2023-04-21T14:30:29.389Z,3.90
2023-04-21T14:35:32.726Z,6.20
2023-04-21T14:40:35.581Z,5.00
2023-04-21T14:45:38.496Z,5.00
2023-04-21T14:50:41.744Z,6.00
2023-04-21T14:55:44.523Z,5.00
2023-04-21T15:00:48.914Z,5.30
2023-04-21T15:05:52.373Z,6.60
2023-04-21T15:10:56.421Z,6.00
2023-04-21T15:16:01.355Z,4.40
2023-04-21T15:21:04.267Z,4.70
2023-04-21T15:26:09.718Z,4.10
2023-04-21T15:31:12.736Z,8.90
2023-04-21T15:36:15.744Z,5.20
2023-04-21T15:41:18.817Z,5.50
2023-04-21T15:46:21.663Z,5.70
2023-04-21T15:51:24.548Z,7.40
2023-04-21T15:56:27.800Z,5.50
2023-04-21T16:01:30.800Z,4.20
2023-04-21T16:06:33.872Z,4.40
2023-04-21T16:11:37.343Z,4.30
2023-04-21T16:16:40.507Z,6.20
2023-04-21T16:21:43.569Z,3.30
2023-04-21T16:26:46.387Z,3.90
2023-04-21T16:31:49.509Z,4.50
2023-04-21T16:37:00.281Z,3.50
2023-04-21T16:42:05.004Z,6.80
2023-04-21T16:47:08.080Z,5.30
2023-04-21T16:52:14.303Z,4.80
2023-04-21T16:57:17.847Z,6.90
2023-04-21T17:02:21.377Z,5.90
2023-04-21T17:07:24.373Z,6.00
2023-04-21T17:12:27.984Z,5.60
2023-04-21T17:17:40.464Z,6.10
2023-04-21T17:22:43.367Z,8.60
2023-04-21T17:27:46.562Z,5.60
2023-04-21T17:32:53.289Z,5.80
2023-04-21T17:38:02.881Z,6.40
2023-04-21T17:43:05.767Z,7.10
2023-04-21T17:48:08.724Z,7.40
2023-04-21T17:53:12.889Z,7.70
2023-04-21T17:58:17.163Z,6.60
2023-04-21T18:03:25.159Z,5.20
2023-04-21T18:08:28.617Z,7.40
2023-04-21T18:13:31.492Z,6.60
2023-04-21T18:18:34.266Z,5.00
2023-04-21T18:23:37.290Z,7.40
2023-04-21T18:28:40.107Z,7.20
2023-04-21T18:33:43.107Z,8.00
2023-04-21T18:38:48.090Z,7.80
2023-04-21T18:43:51.127Z,5.90
2023-04-21T18:48:54.879Z,6.50
2023-04-21T18:53:58.070Z,5.80
2023-04-21T18:59:01.057Z,5.80
2023-04-21T19:04:08.472Z,9.90
2023-04-21T19:09:12.229Z,12.30
2023-04-21T19:14:17.703Z,12.90
2023-04-21T19:19:21.599Z,11.90
2023-04-21T19:24:29.101Z,16.20
2023-04-21T19:29:36.544Z,15.10
2023-04-21T19:34:39.775Z,8.40
2023-04-21T19:39:43.942Z,12.30
2023-04-21T19:44:47.309Z,10.00
2023-04-21T19:49:52.914Z,9.90
2023-04-21T20:00:09.055Z,7.80
2023-04-21T20:05:16.966Z,10.30
2023-04-21T20:10:20.163Z,8.20
2023-04-21T20:15:25.212Z,7.30
2023-04-21T20:20:28.026Z,7.50
2023-04-21T20:25:33.107Z,10.90
2023-04-21T20:30:36.416Z,7.70
2023-04-21T20:35:39.749Z,7.40
2023-04-21T20:40:43.398Z,6.60
2023-04-21T20:45:47.619Z,5.00
2023-04-21T20:50:51.577Z,6.50
2023-04-21T20:55:55.956Z,4.80
2023-04-21T21:01:00.315Z,5.10
2023-04-21T21:06:04.941Z,5.00
2023-04-21T21:11:10.692Z,5.10
2023-04-21T21:16:13.980Z,4.90
2023-04-21T21:21:16.737Z,5.10
2023-04-21T21:26:19.740Z,7.00
2023-04-21T21:31:22.704Z,9.80
2023-04-21T21:36:26.170Z,7.50
2023-04-21T21:41:29.033Z,6.70
2023-04-21T21:46:32.002Z,6.50
2023-04-21T21:51:34.919Z,8.60
2023-04-21T21:56:37.891Z,6.50
2023-04-21T22:01:44.255Z,6.60
2023-04-21T22:06:47.196Z,8.20
2023-04-21T22:11:50.091Z,11.50
2023-04-21T22:16:53.434Z,17.10
2023-04-21T22:21:56.664Z,18.30
2023-04-21T22:26:59.554Z,10.90
2023-04-21T22:32:02.395Z,9.10
2023-04-21T22:37:05.846Z,6.50
2023-04-21T22:42:08.614Z,6.60
2023-04-21T22:47:12.165Z,7.10
2023-04-21T22:52:15.589Z,8.20
2023-04-21T22:57:19.007Z,5.20
2023-04-21T23:02:22.068Z,5.30
2023-04-21T23:07:25.046Z,7.30
2023-04-21T23:12:30.413Z,7.90
2023-04-21T23:17:33.295Z,5.50
2023-04-21T23:22:36.313Z,5.60
2023-04-21T23:27:39.127Z,5.30
2023-04-21T23:32:42.030Z,5.70
2023-04-21T23:37:46.464Z,6.80
2023-04-21T23:42:49.433Z,5.90
2023-04-21T23:47:52.253Z,7.00
2023-04-21T23:52:55.225Z,5.70
2023-04-21T23:57:58.124Z,7.40
